Time;durP1;ratioP1;P1;durP2;ratioP2;P2;SDS_P1;SDS_P2;PMS_P1;PMS_P2;Temp;Humidity;BMP_temperature;BMP_pressure;BME280_temperature;BME280_humidity;BME280_pressure;Samples;Min_cycle;Max_cycle;Signal;HPM_P1;HPM_P2
2024/04/23 00:00:34;;;;;;;8.80;6.00;;;0.40;77.40;;;-0.78;84.54;98160.97;5430451;26;20528;-70
2024/04/23 00:03:00;;;;;;;6.40;5.80;;;0.30;77.40;;;-1.25;84.10;98077.59;5457220;26;20561;-70
2024/04/23 00:05:29;;;;;;;6.50;5.50;;;0.30;77.60;;;-0.78;83.94;98134.44;5423304;26;20472;-70
2024/04/23 00:07:55;;;;;;;6.57;5.87;;;0.40;77.80;;;-0.75;84.12;98156.22;5453184;26;20908;-70
2024/04/23 00:10:27;;;;;;;6.80;6.20;;;0.40;77.30;;;-0.61;83.13;98160.25;5431391;26;21108;-71
2024/04/23 00:12:53;;;;;;;9.30;6.60;;;0.50;77.20;;;-0.54;82.18;98151.72;5439276;26;20571;-71
2024/04/23 00:15:22;;;;;;;6.80;6.10;;;0.60;76.40;;;-0.57;81.87;98140.41;5454516;26;20467;-71
2024/04/23 00:17:48;;;;;;;6.23;5.70;;;0.60;76.50;;;-0.63;82.53;98148.94;5461918;26;20464;-71
2024/04/23 00:20:17;;;;;;;6.20;5.60;;;0.70;76.10;;;-0.54;81.96;98160.53;5443767;26;20521;-71
2024/04/23 00:22:43;;;;;;;6.40;5.10;;;0.60;76.00;;;-0.61;81.85;98146.13;5441941;26;20470;-70
2024/04/23 00:25:12;;;;;;;6.53;5.70;;;0.70;75.70;;;-0.61;81.32;98136.38;5448439;26;20462;-70
2024/04/23 00:27:41;;;;;;;10.70;5.63;;;0.70;75.60;;;-0.59;81.77;98152.16;5436440;26;20456;-70
2024/04/23 00:30:11;;;;;;;6.47;5.77;;;0.60;75.30;;;-0.63;81.75;98134.81;5449834;26;20560;-71
2024/04/23 00:32:38;;;;;;;7.60;6.80;;;0.60;75.60;;;-0.56;81.23;98146.56;5424275;26;20487;-71
2024/04/23 00:35:07;;;;;;;7.27;6.10;;;0.60;75.50;;;-0.68;81.48;98127.31;5427865;26;20475;-71
2024/04/23 00:37:33;;;;;;;13.33;6.93;;;0.70;75.30;;;-0.66;81.85;98140.41;5446986;26;20464;-71
2024/04/23 00:40:02;;;;;;;6.20;5.60;;;0.60;75.20;;;-0.66;81.55;98135.09;5469315;26;20466;-71
2024/04/23 00:42:30;;;;;;;6.10;5.37;;;0.50;75.30;;;-0.61;81.09;98133.72;5436340;26;20475;-71
2024/04/23 00:45:01;;;;;;;7.63;5.67;;;0.60;75.00;;;-0.70;81.46;98137.19;5463247;26;20500;-72
2024/04/23 00:47:28;;;;;;;7.30;6.27;;;0.50;75.00;;;-0.79;81.68;98124.78;5439790;26;20465;-70
2024/04/23 00:49:57;;;;;;;6.80;5.23;;;0.40;75.30;;;-0.93;81.37;98103.00;5420466;26;20529;-70
2024/04/23 00:52:25;;;;;;;10.73;6.10;;;0.40;75.30;;;-0.88;81.18;98119.34;5444277;26;20467;-70
2024/04/23 00:54:53;;;;;;;5.93;5.33;;;0.40;75.10;;;-0.81;80.85;98116.97;5461387;26;20462;-70
2024/04/23 00:57:20;;;;;;;6.80;5.73;;;0.40;74.90;;;-0.75;80.41;98118.22;5442900;26;21039;-71
2024/04/23 00:59:49;;;;;;;11.10;7.00;;;0.50;74.60;;;-0.89;80.21;98100.91;5417486;26;20483;-71
2024/04/23 01:02:21;;;;;;;6.17;5.57;;;0.40;74.40;;;-0.84;79.97;98097.81;5463055;26;23389;-70
2024/04/23 01:04:48;;;;;;;6.13;5.50;;;0.50;74.10;;;-0.67;79.85;98114.84;5458118;26;20438;-70
2024/04/23 01:07:16;;;;;;;6.60;5.40;;;0.50;74.10;;;-0.80;79.53;98108.03;5447245;26;20483;-71
2024/04/23 01:09:42;;;;;;;7.10;5.93;;;0.50;73.60;;;-0.83;79.55;98099.50;5423394;26;20466;-71
2024/04/23 01:12:12;;;;;;;4.73;4.30;;;0.50;73.80;;;-0.77;79.25;98104.25;5454135;26;20604;-70
2024/04/23 01:14:41;;;;;;;7.53;5.20;;;0.50;73.70;;;-0.86;79.13;98087.38;5456694;26;20520;-70
2024/04/23 01:17:12;;;;;;;6.17;5.07;;;0.40;73.30;;;-0.93;78.80;98097.69;5461478;26;21024;-70
2024/04/23 01:19:45;;;;;;;6.53;4.70;;;0.50;73.40;;;-0.83;79.04;98102.16;5437042;26;20515;-70
2024/04/23 01:22:23;;;;;;;6.23;5.00;;;0.40;73.20;;;-0.76;78.09;98108.59;5435978;26;20567;-70
2024/04/23 01:24:59;;;;;;;7.37;5.30;;;0.40;72.80;;;-0.76;77.80;98100.63;5453508;26;20457;-71
2024/04/23 01:27:31;;;;;;;5.43;4.80;;;0.50;73.00;;;-0.93;78.12;98097.69;5448008;26;20529;-72
2024/04/23 01:29:59;;;;;;;7.53;5.47;;;0.40;72.60;;;-0.79;77.74;98093.78;5434736;26;20987;-69
2024/04/23 01:32:28;;;;;;;6.40;4.40;;;0.40;72.50;;;-0.84;77.28;98093.38;5434831;26;21068;-70
2024/04/23 01:34:56;;;;;;;6.00;4.70;;;0.40;72.00;;;-0.81;77.15;98097.56;5459404;26;20516;-71
2024/04/23 01:37:29;;;;;;;6.33;5.00;;;0.40;72.10;;;-0.87;76.73;98081.22;5447034;26;21098;-71
2024/04/23 01:39:57;;;;;;;5.30;4.50;;;0.40;71.90;;;-0.92;76.42;98062.25;5446765;26;20507;-70
2024/04/23 01:42:26;;;;;;;6.50;5.77;;;0.50;71.60;;;-0.82;76.53;98094.06;5467242;26;20998;-70
2024/04/23 01:44:56;;;;;;;6.47;5.17;;;0.40;71.50;;;-0.83;76.85;98086.22;5454224;26;20458;-71
2024/04/23 01:47:25;;;;;;;5.63;5.10;;;0.40;71.50;;;-0.99;76.25;98055.81;5427218;26;20460;-70
2024/04/23 01:49:52;;;;;;;6.10;5.00;;;0.40;71.40;;;-0.87;76.61;98067.94;5447409;26;20517;-70
2024/04/23 01:52:21;;;;;;;6.20;5.40;;;0.40;71.30;;;-0.82;76.44;98079.97;5456095;26;20460;-70
2024/04/23 01:54:47;;;;;;;5.53;4.30;;;0.40;71.20;;;-0.83;76.17;98076.47;5455254;26;20944;-71
2024/04/23 01:57:17;;;;;;;4.43;4.03;;;0.40;71.20;;;-0.89;76.54;98075.22;5476602;26;20459;-71
2024/04/23 01:59:49;;;;;;;5.93;5.30;;;0.40;71.40;;;-1.16;75.96;98044.09;5454556;26;20811;-71
2024/04/23 02:02:22;;;;;;;5.10;4.60;;;0.30;71.20;;;-1.03;76.17;98055.28;5468525;26;20467;-71
2024/04/23 02:04:49;;;;;;;5.60;4.57;;;0.30;70.90;;;-0.88;75.98;98074.22;5448366;26;20508;-71
2024/04/23 02:07:19;;;;;;;5.60;4.97;;;0.40;70.80;;;-1.20;75.84;98017.03;5451484;26;21115;-71
2024/04/23 02:09:49;;;;;;;5.50;4.83;;;0.40;70.90;;;-0.91;76.22;98073.66;5462504;26;20514;-71
2024/04/23 02:12:16;;;;;;;7.00;4.73;;;0.30;70.90;;;-0.91;76.39;98084.28;5452354;26;20517;-71
2024/04/23 02:14:45;;;;;;;5.30;4.80;;;0.30;71.00;;;-0.97;76.26;98080.41;5426087;26;20471;-71
2024/04/23 02:17:14;;;;;;;6.70;4.83;;;0.30;71.00;;;-1.06;76.77;98078.56;5427637;26;20590;-71
2024/04/23 02:19:46;;;;;;;5.90;5.00;;;0.30;71.10;;;-1.07;76.97;98083.03;5470199;26;20584;-72
2024/04/23 02:22:12;;;;;;;5.67;4.17;;;0.20;71.20;;;-1.20;77.59;98070.06;5461092;26;20479;-72
2024/04/23 02:24:41;;;;;;;6.37;4.83;;;0.20;71.60;;;-1.13;77.90;98072.16;5451039;26;20460;-70
2024/04/23 02:27:07;;;;;;;5.73;4.70;;;0.20;71.80;;;-1.12;77.99;98090.56;5428056;26;20604;-71
2024/04/23 02:29:36;;;;;;;5.80;5.20;;;0.10;72.30;;;-1.16;78.26;98091.84;5452656;26;20525;-71
2024/04/23 02:32:04;;;;;;;6.10;4.97;;;0.10;72.00;;;-1.29;78.42;98087.63;5424012;26;20508;-71
2024/04/23 02:34:33;;;;;;;6.37;4.27;;;0.10;72.20;;;-1.18;78.29;98102.56;5472406;26;20558;-70
2024/04/23 02:37:01;;;;;;;6.10;5.10;;;0.10;72.10;;;-1.15;78.51;98104.13;5468079;26;21007;-71
2024/04/23 02:39:30;;;;;;;7.20;5.30;;;0.10;72.20;;;-1.28;78.43;98093.78;5425916;26;20467;-71
2024/04/23 02:41:57;;;;;;;6.57;4.90;;;0.10;72.30;;;-1.21;78.54;98100.19;5466539;26;20475;-71
2024/04/23 02:44:26;;;;;;;6.30;5.70;;;0.10;72.20;;;-1.80;78.54;98003.91;5435606;26;20556;-70
2024/04/23 02:46:53;;;;;;;6.43;5.03;;;0.10;72.20;;;-1.23;78.46;98096.00;5444288;26;20467;-71
2024/04/23 02:49:22;;;;;;;5.97;5.03;;;0.10;72.00;;;-1.64;78.48;98040.44;5461485;26;20526;-71
2024/04/23 02:51:48;;;;;;;9.47;4.63;;;-0.10;72.00;;;-1.33;79.00;98098.66;5454458;26;20463;-71
2024/04/23 02:54:19;;;;;;;5.93;5.27;;;-0.10;72.50;;;-1.46;79.02;98075.06;5443445;26;20478;-70
2024/04/23 02:56:48;;;;;;;5.87;4.77;;;-0.10;72.50;;;-1.60;80.15;98084.22;5443764;26;21107;-72
2024/04/23 02:59:17;;;;;;;5.87;5.30;;;-0.20;72.60;;;-1.59;80.65;98072.69;5462022;26;20456;-70
2024/04/23 03:01:43;;;;;;;6.67;5.07;;;-0.30;73.20;;;-1.60;80.94;98073.63;5471202;26;20828;-70
2024/04/23 03:04:12;;;;;;;6.30;5.03;;;-0.40;73.30;;;-1.68;80.66;98073.50;5445221;26;20479;-71
2024/04/23 03:06:39;;;;;;;9.70;5.93;;;-0.40;73.60;;;-1.82;81.29;98080.84;5429808;26;20847;-71
2024/04/23 03:09:07;;;;;;;7.97;5.67;;;-0.50;73.50;;;-1.89;81.83;98066.47;5444954;26;21075;-70
2024/04/23 03:11:36;;;;;;;6.40;4.57;;;-0.70;73.90;;;-2.04;82.76;98066.84;5445301;26;20471;-71
2024/04/23 03:14:06;;;;;;;7.87;5.43;;;-0.70;74.30;;;-1.97;83.08;98058.34;5477739;26;21498;-71
2024/04/23 03:16:32;;;;;;;6.20;5.20;;;-0.70;74.80;;;-2.10;83.07;98051.47;5457862;26;20986;-71
2024/04/23 03:19:01;;;;;;;9.53;5.37;;;-0.70;74.90;;;-2.10;83.60;98056.78;5458453;26;20469;-71
2024/04/23 03:21:28;;;;;;;6.57;5.10;;;-0.90;75.10;;;-2.09;84.22;98057.63;5437893;26;20467;-71
2024/04/23 03:23:56;;;;;;;5.50;5.00;;;-0.90;75.90;;;-2.29;84.46;98055.72;5436371;26;20800;-71
2024/04/23 03:26:22;;;;;;;5.40;4.90;;;-1.00;75.70;;;-2.45;85.34;98058.03;5451079;26;20534;-71
2024/04/23 03:28:54;;;;;;;6.90;5.10;;;-1.10;76.10;;;-2.44;85.40;98067.63;5463499;26;20460;-70
2024/04/23 03:31:20;;;;;;;5.53;5.03;;;-1.10;76.50;;;-2.20;84.52;98062.03;5457281;26;20508;-72
2024/04/23 03:33:49;;;;;;;6.40;4.50;;;-1.00;77.20;;;-2.26;83.87;98067.03;5419184;26;20812;-71
2024/04/23 03:36:15;;;;;;;4.93;4.47;;;-1.10;76.20;;;-2.36;84.64;98064.34;5449367;26;20458;-71
2024/04/23 03:38:44;;;;;;;6.27;5.60;;;-1.10;76.40;;;-2.37;84.73;98063.47;5456193;26;20456;-71
2024/04/23 03:41:13;;;;;;;6.17;5.47;;;-1.10;76.30;;;-2.80;85.04;98030.13;5430235;26;20516;-71
2024/04/23 03:43:39;;;;;;;6.97;5.00;;;-1.20;76.40;;;-2.61;85.96;98051.41;5465145;26;21039;-71
2024/04/23 03:46:11;;;;;;;5.87;4.97;;;-1.30;76.80;;;-2.49;85.86;98070.66;5459061;26;20449;-71
2024/04/23 03:48:40;;;;;;;5.80;5.30;;;-1.20;77.50;;;-2.34;85.55;98050.00;5459712;26;20637;-71
2024/04/23 03:51:06;;;;;;;5.93;5.33;;;-1.20;77.90;;;-2.34;84.87;98060.59;5456713;26;20456;-70
2024/04/23 03:53:35;;;;;;;6.50;5.80;;;-1.20;77.50;;;-2.40;85.17;98061.09;5441161;26;21194;-70
2024/04/23 03:56:01;;;;;;;6.30;5.50;;;-1.20;76.80;;;-2.63;86.36;98053.34;5457700;26;20595;-70
2024/04/23 03:58:30;;;;;;;6.43;5.83;;;-1.30;76.80;;;-2.88;86.21;98014.88;5476217;26;20511;-71
2024/04/23 04:00:57;;;;;;;6.47;5.87;;;-1.40;77.60;;;-2.69;86.95;98053.03;5457911;26;20538;-71
2024/04/23 04:06:14;;;;;;;6.97;5.70;;;-1.40;78.10;;;-2.74;86.07;98045.47;5453243;26;20470;-70
2024/04/23 04:08:43;;;;;;;6.60;5.67;;;-1.40;78.00;;;-2.59;86.49;98048.59;5461330;26;20567;-71
2024/04/23 04:11:12;;;;;;;6.60;5.80;;;-1.40;78.20;;;-2.37;85.02;98047.59;5453684;26;21056;-70
2024/04/23 04:13:41;;;;;;;7.83;4.60;;;-1.20;78.10;;;-2.37;83.87;98050.25;5438059;26;20946;-70
2024/04/23 04:16:11;;;;;;;6.23;4.80;;;-1.20;76.90;;;-2.33;83.16;98033.16;5456356;26;20767;-71
2024/04/23 04:18:40;;;;;;;5.73;4.47;;;-1.10;76.60;;;-2.17;81.80;98029.16;5427551;26;20458;-70
2024/04/23 04:21:09;;;;;;;5.10;4.57;;;-0.90;75.50;;;-2.08;81.68;98038.94;5440751;26;20458;-70
2024/04/23 04:23:35;;;;;;;5.93;4.73;;;-0.90;74.90;;;-2.03;81.14;98038.53;5451793;26;20502;-71
2024/04/23 04:26:04;;;;;;;6.63;4.90;;;-0.80;74.50;;;-2.06;81.07;98039.63;5418584;26;22387;-70
2024/04/23 04:28:30;;;;;;;4.47;4.07;;;-0.80;74.40;;;-1.98;80.71;98054.03;5462293;26;20463;-71
2024/04/23 04:30:59;;;;;;;4.70;4.20;;;-0.80;74.10;;;-1.97;80.42;98045.09;5458403;26;20460;-70
2024/04/23 04:33:25;;;;;;;6.93;5.03;;;-0.70;73.80;;;-1.82;79.28;98035.81;5452591;26;20462;-71
2024/04/23 04:35:57;;;;;;;5.37;4.77;;;-0.60;73.50;;;-1.16;76.53;98039.63;5451938;26;20472;-71
2024/04/23 04:38:23;;;;;;;4.27;3.87;;;-0.10;73.30;;;-0.49;73.53;98030.03;5450774;26;20513;-76
2024/04/23 04:40:52;;;;;;;5.37;4.50;;;0.50;71.60;;;-0.01;71.06;98029.00;5438241;26;20534;-74
2024/04/23 04:43:19;;;;;;;4.53;4.13;;;1.10;69.70;;;0.08;69.64;98021.13;5469644;26;20459;-75
2024/04/23 04:45:48;;;;;;;5.77;4.30;;;1.40;67.40;;;-0.44;69.42;97959.59;5439756;26;20572;-74
2024/04/23 04:48:14;;;;;;;7.43;3.80;;;1.40;66.00;;;0.27;68.38;98017.50;5475128;26;20573;-74
2024/04/23 04:50:43;;;;;;;4.87;3.93;;;1.60;65.80;;;0.66;67.34;98038.50;5442152;26;20909;-74
2024/04/23 04:53:12;;;;;;;4.50;4.10;;;2.00;64.70;;;0.76;66.54;98035.78;5453104;26;20511;-75
2024/04/23 04:55:41;;;;;;;4.37;3.97;;;2.20;63.80;;;0.88;66.31;98032.91;5439599;26;20454;-74
2024/04/23 04:58:07;;;;;;;4.67;4.23;;;2.20;63.30;;;1.13;64.69;98033.91;5442291;26;20462;-74
2024/04/23 05:00:36;;;;;;;4.30;3.70;;;2.50;62.20;;;1.17;64.83;98047.75;5451345;26;20524;-73
2024/04/23 05:03:03;;;;;;;4.23;3.83;;;2.60;62.10;;;0.90;65.23;97977.69;5470285;26;20464;-74
2024/04/23 05:05:32;;;;;;;4.90;4.27;;;2.80;61.60;;;1.82;62.42;98030.53;5441558;26;20518;-75
2024/04/23 05:07:58;;;;;;;4.70;3.90;;;3.00;60.90;;;2.55;61.34;98026.44;5462652;26;20469;-74
2024/04/23 05:10:30;;;;;;;3.50;3.23;;;3.70;60.40;;;3.60;57.76;98033.94;5452144;26;20500;-76
2024/04/23 05:12:56;;;;;;;6.23;3.90;;;4.80;58.10;;;4.23;56.27;98036.72;5440157;26;20452;-69
2024/04/23 05:15:25;;;;;;;5.60;3.50;;;5.60;56.10;;;4.23;54.62;98026.03;5445794;26;20531;-71
2024/04/23 05:17:52;;;;;;;4.10;3.70;;;6.00;54.00;;;4.87;52.60;98027.69;5449362;26;20453;-70
2024/04/23 05:20:20;;;;;;;4.43;3.30;;;6.40;52.70;;;5.59;50.56;98032.75;5424389;26;20460;-70
2024/04/23 05:22:47;;;;;;;6.63;3.30;;;6.90;51.40;;;5.44;49.82;98030.88;5446748;26;20562;-69
2024/04/23 05:25:16;;;;;;;4.90;4.00;;;7.40;49.40;;;5.51;48.48;97988.94;5417031;26;20555;-77
2024/04/23 05:27:45;;;;;;;3.50;3.30;;;7.50;48.70;;;5.39;49.93;98038.63;5423050;26;20460;-80
2024/04/23 05:32:46;;;;;;;4.07;3.63;;;7.40;48.20;;;5.89;49.20;98049.69;5453438;26;20453;-77
2024/04/23 05:33:01;;;;;;;3.70;3.40;;;7.60;48.30;;;6.08;46.58;97959.81;5461023;26;20494;-77
2024/04/23 05:35:30;;;;;;;5.57;3.73;;;8.10;47.00;;;6.39;47.49;98038.41;5421810;26;20469;-78
2024/04/23 05:37:59;;;;;;;12.17;9.17;;;8.10;47.10;;;6.33;47.59;98028.44;5465873;26;20455;-77
2024/04/23 05:40:28;;;;;;;17.30;9.23;;;8.00;47.20;;;6.68;46.91;98036.66;5435150;26;20594;-76
2024/04/23 05:43:00;;;;;;;8.50;6.00;;;8.40;47.00;;;5.95;49.25;98032.03;5428782;26;20474;-77
2024/04/23 05:45:29;;;;;;;8.83;5.30;;;7.80;47.20;;;6.06;48.39;98030.75;5411336;26;20467;-79
2024/04/23 05:48:54;;;;;;;4.20;3.60;;;7.90;46.90;;;5.69;47.24;98044.03;5426258;26;20475;-77
2024/04/23 05:52:19;;;;;;;5.90;4.20;;;7.50;45.60;;;3.69;53.43;98048.94;5460991;26;20554;-84
2024/04/23 05:55:32;;;;;;;4.53;4.13;;;6.00;47.60;;;2.99;54.08;98051.19;5445399;26;20568;-72
2024/04/23 05:58:02;;;;;;;4.57;3.80;;;4.60;47.50;;;2.69;54.71;98042.81;5452343;26;20519;-70
2024/04/23 06:00:31;;;;;;;4.50;4.10;;;4.10;48.20;;;2.49;55.46;98050.25;5450262;26;20456;-74
2024/04/23 06:02:58;;;;;;;8.10;4.30;;;3.80;48.60;;;2.23;56.21;98041.34;5454115;26;20870;-73
2024/04/23 06:05:27;;;;;;;5.73;4.50;;;3.70;49.10;;;2.10;57.04;98033.78;5458927;26;20460;-74
2024/04/23 06:07:54;;;;;;;9.17;4.40;;;3.50;49.50;;;1.86;56.67;98047.84;5444796;26;20602;-74
2024/04/23 06:10:24;;;;;;;4.73;3.97;;;3.30;49.10;;;1.80;57.42;98037.84;5473219;26;20440;-74
2024/04/23 06:12:50;;;;;;;4.73;3.67;;;3.10;49.50;;;1.90;58.55;98037.72;5455244;26;20469;-72
2024/04/23 06:15:22;;;;;;;5.07;4.33;;;3.10;50.60;;;1.86;57.68;98041.69;5442837;26;20856;-74
2024/04/23 06:17:48;;;;;;;4.90;4.40;;;3.00;50.10;;;1.91;57.20;98040.22;5414052;26;20467;-72
2024/04/23 06:20:17;;;;;;;4.77;4.37;;;3.20;50.30;;;1.90;56.25;98038.56;5433722;26;20474;-74
2024/04/23 06:22:48;;;;;;;4.97;4.23;;;3.10;49.70;;;2.05;57.38;98036.13;5455257;26;20491;-74
2024/04/23 06:25:17;;;;;;;4.50;4.10;;;3.20;50.40;;;1.96;56.84;98047.72;5446446;26;20477;-72
2024/04/23 06:27:44;;;;;;;5.83;4.23;;;3.20;49.80;;;2.09;56.94;98039.31;5469012;26;20992;-75
2024/04/23 06:30:15;;;;;;;4.53;4.13;;;3.20;50.10;;;2.13;58.08;98016.66;5446681;26;20522;-73
2024/04/23 06:32:44;;;;;;;4.80;4.27;;;3.40;50.90;;;2.45;57.10;98035.59;5425787;26;20467;-75
2024/04/23 06:35:15;;;;;;;4.90;4.50;;;3.50;50.80;;;2.39;55.81;98023.75;5426647;26;20475;-73
2024/04/23 06:37:41;;;;;;;5.53;3.80;;;3.60;49.90;;;2.31;56.21;98021.03;5443581;26;20469;-74
2024/04/23 06:40:11;;;;;;;5.03;3.93;;;3.50;49.50;;;2.51;56.06;98033.09;5458224;26;20510;-72
2024/04/23 06:42:38;;;;;;;4.00;3.13;;;3.60;49.70;;;2.39;54.98;98026.41;5435934;26;20473;-75
2024/04/23 06:45:09;;;;;;;8.70;3.97;;;3.60;49.00;;;2.43;55.12;98026.88;5446137;26;20461;-73
2024/04/23 06:47:35;;;;;;;5.70;4.23;;;3.60;49.00;;;2.36;54.82;98016.06;5433182;26;20484;-74
2024/04/23 06:50:08;;;;;;;7.97;3.70;;;3.60;48.90;;;2.71;53.18;98024.78;5454970;26;20521;-76
2024/04/23 06:52:34;;;;;;;3.53;3.20;;;3.80;48.60;;;2.80;53.60;98021.13;5474780;26;20457;-75
2024/04/23 06:55:03;;;;;;;3.90;3.20;;;3.90;48.60;;;2.89;53.24;98021.13;5441246;26;20979;-73
2024/04/23 06:57:29;;;;;;;3.70;3.23;;;4.00;48.70;;;2.96;52.90;98022.97;5432111;26;20461;-74
2024/04/23 06:59:59;;;;;;;3.10;2.90;;;4.10;48.50;;;3.25;53.66;98020.78;5453685;26;21114;-75
2024/04/23 07:02:25;;;;;;;3.47;3.10;;;4.20;49.40;;;3.25;51.46;98015.44;5418526;26;20593;-73
2024/04/23 07:04:54;;;;;;;3.67;3.30;;;4.30;47.90;;;3.37;52.42;98008.75;5443423;26;20514;-74
2024/04/23 07:07:23;;;;;;;3.80;3.10;;;4.50;48.60;;;3.46;51.62;98017.59;5460239;26;20461;-74
2024/04/23 07:09:52;;;;;;;3.50;3.20;;;4.60;48.10;;;3.18;51.59;98014.47;5456399;26;20456;-75
2024/04/23 07:12:18;;;;;;;3.80;3.47;;;4.50;47.40;;;3.28;52.55;98006.28;5447783;26;20437;-70
2024/04/23 07:14:47;;;;;;;3.70;3.27;;;4.50;48.00;;;3.57;51.72;98019.09;5443208;26;20465;-73
2024/04/23 07:17:13;;;;;;;3.83;3.40;;;4.60;47.80;;;3.88;51.23;98030.84;5429883;26;20926;-73
2024/04/23 07:19:42;;;;;;;4.87;3.67;;;4.90;48.10;;;4.02;50.27;98018.59;5460032;26;20519;-75
2024/04/23 07:22:09;;;;;;;3.30;3.00;;;5.10;47.60;;;4.16;50.11;98012.50;5450084;26;20501;-77
2024/04/23 07:24:40;;;;;;;3.43;3.10;;;5.20;47.30;;;4.26;49.24;98009.66;5423482;26;20452;-79
2024/04/23 07:27:06;;;;;;;3.53;3.23;;;5.30;46.80;;;4.16;49.04;98012.50;5429811;26;20509;-78
2024/04/23 07:29:35;;;;;;;3.30;3.00;;;5.30;46.40;;;4.16;49.18;98011.69;5447564;26;20511;-78
2024/04/23 07:32:02;;;;;;;3.03;2.63;;;5.30;46.60;;;4.28;49.25;97998.75;5438255;26;20506;-75
2024/04/23 07:34:31;;;;;;;3.90;3.50;;;5.40;46.70;;;4.05;49.17;98010.25;5457349;26;20454;-77
2024/04/23 07:36:57;;;;;;;4.60;3.70;;;5.20;46.30;;;4.19;49.12;98000.66;5454247;26;20448;-73
2024/04/23 07:39:27;;;;;;;3.50;2.93;;;5.30;46.50;;;4.22;48.80;97995.78;5430779;26;20790;-75
2024/04/23 07:41:55;;;;;;;3.90;3.50;;;5.40;46.50;;;4.44;48.98;97993.31;5464090;26;20580;-77
2024/04/23 07:44:24;;;;;;;6.73;4.60;;;5.60;46.80;;;4.46;49.79;98001.19;5445344;26;20453;-76
2024/04/23 07:46:51;;;;;;;5.13;3.73;;;5.50;47.00;;;4.18;49.83;97998.97;5445114;26;20852;-76
2024/04/23 07:49:19;;;;;;;6.63;3.40;;;5.30;46.60;;;4.34;49.75;97984.69;5421371;26;20604;-75
2024/04/23 07:51:45;;;;;;;4.50;3.20;;;5.50;46.90;;;4.57;49.22;97987.41;5464298;26;20437;-77
2024/04/23 07:54:15;;;;;;;4.07;3.73;;;5.60;46.90;;;4.63;49.66;97988.53;5439805;26;20469;-74
2024/04/23 07:56:41;;;;;;;4.37;3.90;;;5.70;47.20;;;4.57;49.85;97982.03;5456337;26;20558;-77
2024/04/23 07:59:12;;;;;;;5.73;4.70;;;5.80;47.40;;;4.54;50.29;97991.25;5429583;26;21035;-75
2024/04/23 08:01:39;;;;;;;3.90;3.53;;;5.70;47.30;;;4.53;50.49;97989.59;5449533;26;20498;-77
2024/04/23 08:04:07;;;;;;;4.53;4.03;;;5.70;47.40;;;4.70;49.72;97994.81;5450200;26;21268;-77
2024/04/23 08:06:38;;;;;;;3.90;3.60;;;5.80;47.30;;;4.87;50.03;98002.72;5453410;26;20449;-78
2024/04/23 08:09:04;;;;;;;4.27;3.93;;;5.90;47.50;;;5.28;49.62;97983.63;5445829;26;20450;-74
2024/04/23 08:11:33;;;;;;;5.97;3.87;;;6.20;47.90;;;5.13;48.51;97964.03;5457102;26;20469;-74
2024/04/23 08:13:59;;;;;;;6.40;3.73;;;6.30;47.10;;;5.39;48.47;97980.53;5422674;26;20469;-75
2024/04/23 08:16:31;;;;;;;7.67;4.50;;;6.40;47.00;;;5.73;48.24;97980.16;5461621;26;20512;-75
2024/04/23 08:18:57;;;;;;;4.03;3.63;;;6.70;46.80;;;6.33;46.72;97969.38;5458231;26;20500;-78
2024/04/23 08:21:28;;;;;;;4.63;4.20;;;7.10;46.60;;;6.53;46.66;97974.97;5446484;26;21013;-78
2024/04/23 08:23:54;;;;;;;6.43;4.23;;;7.50;46.60;;;6.22;46.09;97963.47;5443206;26;20454;-74
2024/04/23 08:26:23;;;;;;;4.87;4.37;;;7.40;45.80;;;6.39;45.97;97947.16;5450168;26;20464;-74
2024/04/23 08:28:53;;;;;;;4.50;4.10;;;7.50;46.10;;;6.79;45.96;97963.66;5459600;26;20448;-74
2024/04/23 08:31:21;;;;;;;4.13;3.83;;;7.70;46.40;;;6.96;45.95;97963.38;5449246;26;21021;-74
2024/04/23 08:33:50;;;;;;;5.13;3.70;;;7.90;46.30;;;7.25;45.02;97971.47;5428982;26;20982;-78
2024/04/23 08:36:20;;;;;;;4.20;3.80;;;8.10;46.10;;;7.53;44.06;97958.03;5453245;26;20453;-74
2024/04/23 08:38:46;;;;;;;4.63;3.70;;;8.50;45.50;;;7.71;44.15;97972.81;5465580;26;20485;-74
2024/04/23 08:41:20;;;;;;;5.87;4.53;;;8.70;45.60;;;7.85;43.51;97960.25;5475586;26;20995;-79
2024/04/23 08:43:52;;;;;;;4.43;4.10;;;8.90;45.20;;;8.02;43.20;97968.84;5452889;26;21258;-74
2024/04/23 08:46:21;;;;;;;4.10;3.80;;;9.10;45.00;;;7.82;43.15;97955.28;5446242;26;20545;-78
2024/04/23 08:48:51;;;;;;;6.77;4.40;;;9.00;44.90;;;8.17;42.32;97964.13;5453873;26;21088;-77
2024/04/23 08:51:21;;;;;;;5.83;4.83;;;9.00;44.60;;;8.22;42.98;97950.91;5432727;26;20470;-77
2024/04/23 08:53:49;;;;;;;5.40;4.70;;;9.20;44.90;;;7.99;42.86;97942.34;5466876;26;20511;-74
2024/04/23 08:56:23;;;;;;;4.20;3.77;;;9.10;44.70;;;8.19;43.09;97956.69;5438021;26;21303;-79
2024/04/23 08:58:51;;;;;;;4.53;3.80;;;9.20;44.80;;;8.02;42.49;97920.41;5447946;26;20976;-72
2024/04/23 09:01:28;;;;;;;4.50;4.03;;;9.30;44.60;;;8.07;42.89;97950.22;5455517;26;20466;-77
2024/04/23 09:03:59;;;;;;;7.00;4.93;;;9.20;44.50;;;8.14;42.92;97943.00;5448221;26;20447;-72
2024/04/23 09:06:28;;;;;;;5.00;4.50;;;9.10;44.70;;;8.12;42.83;97942.38;5436668;26;20543;-79
2024/04/23 09:08:57;;;;;;;5.07;4.57;;;9.20;44.20;;;8.04;42.39;97954.16;5418845;26;20498;-78
2024/04/23 09:11:31;;;;;;;5.20;4.30;;;9.20;44.00;;;7.78;42.26;97863.41;5455738;26;20463;-78
2024/04/23 09:13:58;;;;;;;6.00;5.47;;;9.30;44.00;;;8.14;42.60;97929.56;5449836;26;21214;-79
2024/04/23 09:16:28;;;;;;;4.60;4.20;;;9.20;44.10;;;8.32;42.63;97922.78;5455107;26;20505;-79
2024/04/23 09:18:58;;;;;;;6.00;4.53;;;9.20;44.10;;;8.54;42.18;97917.25;5440811;26;20873;-75
2024/04/23 09:21:29;;;;;;;6.87;4.83;;;9.40;44.20;;;8.82;41.57;97919.78;5447224;26;20453;-80
2024/04/23 09:24:00;;;;;;;7.30;5.23;;;9.70;44.40;;;8.74;41.77;97901.13;5429559;26;20473;-77
2024/04/23 09:26:29;;;;;;;5.20;4.70;;;9.90;44.20;;;9.00;40.24;97908.34;5432524;26;20516;-77
2024/04/23 09:28:56;;;;;;;5.47;4.97;;;10.00;42.30;;;8.69;40.08;97890.94;5448876;26;20514;-77
2024/04/23 09:31:26;;;;;;;5.50;4.77;;;10.00;41.90;;;8.84;41.10;97908.78;5440232;26;20454;-77
2024/04/23 09:33:53;;;;;;;5.03;4.53;;;9.90;43.20;;;9.06;40.76;97904.84;5464235;26;20471;-76
2024/04/23 09:36:26;;;;;;;5.57;4.80;;;10.10;42.40;;;8.92;40.20;97889.72;5459815;26;20485;-77
2024/04/23 09:38:54;;;;;;;5.90;4.30;;;10.10;42.00;;;8.77;40.60;97863.81;5459347;26;20523;-78
2024/04/23 09:41:24;;;;;;;4.90;4.47;;;10.10;42.00;;;9.09;40.80;97905.47;5456045;26;20447;-80
2024/04/23 09:43:55;;;;;;;5.10;4.60;;;10.20;42.50;;;9.26;40.62;97901.28;5422702;26;20467;-79
2024/04/23 09:46:25;;;;;;;5.10;4.60;;;10.20;42.30;;;9.49;40.53;97889.22;5467919;26;20608;-77
2024/04/23 09:48:52;;;;;;;5.50;5.00;;;10.40;42.60;;;9.78;39.76;97897.84;5452749;26;20528;-76
2024/04/23 09:51:25;;;;;;;4.70;4.30;;;10.70;42.10;;;9.44;40.42;97886.31;5425434;26;20929;-77
2024/04/23 09:53:53;;;;;;;7.00;4.17;;;10.50;42.30;;;9.44;40.55;97880.94;5422539;26;20559;-79
2024/04/23 09:56:22;;;;;;;4.60;3.83;;;10.60;42.20;;;10.60;39.25;97881.00;5458124;26;20463;-74
2024/04/23 09:58:49;;;;;;;4.97;4.47;;;11.20;42.60;;;10.27;38.67;97876.63;5445972;26;21031;-76
2024/04/23 10:01:21;;;;;;;6.00;4.23;;;11.30;41.60;;;9.91;38.67;97805.22;5452256;26;20491;-80
2024/04/23 10:03:54;;;;;;;5.87;5.13;;;11.40;41.40;;;10.31;37.98;97879.75;5427306;26;20471;-73
2024/04/23 10:06:29;;;;;;;4.70;4.30;;;11.40;40.90;;;9.90;38.57;97874.53;5458727;26;20581;-77
2024/04/23 10:09:03;;;;;;;4.60;4.20;;;11.20;40.70;;;10.04;38.28;97874.47;5401815;26;20610;-75
2024/04/23 10:11:41;;;;;;;9.00;5.87;;;11.00;40.80;;;9.85;38.84;97865.44;5463592;26;20538;-78
2024/04/23 10:14:20;;;;;;;9.20;4.57;;;10.90;40.90;;;10.20;37.92;97867.75;5462869;26;21227;-79
2024/04/23 10:16:58;;;;;;;4.97;4.50;;;10.80;40.60;;;10.67;37.95;97845.84;5433663;26;20466;-75
2024/04/23 10:19:32;;;;;;;4.80;4.40;;;11.30;41.00;;;10.52;37.50;97859.69;5433605;26;20544;-75
2024/04/23 10:22:02;;;;;;;4.93;4.50;;;11.60;40.50;;;10.49;36.93;97858.25;5447122;26;20515;-73
2024/04/23 10:24:31;;;;;;;4.80;4.40;;;11.60;40.00;;;10.25;37.86;97848.22;5459218;26;20531;-78
2024/04/23 10:26:59;;;;;;;6.20;4.83;;;11.40;40.30;;;10.01;37.06;97856.88;5443440;26;20607;-77
2024/04/23 10:29:29;;;;;;;5.93;4.70;;;11.20;39.70;;;10.33;37.56;97850.63;5459217;26;20805;-78
2024/04/23 10:31:58;;;;;;;4.93;4.53;;;11.10;40.00;;;10.56;36.82;97850.09;5468911;26;20509;-72
2024/04/23 10:34:34;;;;;;;6.30;4.77;;;11.50;40.00;;;11.19;36.02;97837.47;5416161;26;20464;-78
2024/04/23 10:37:05;;;;;;;5.80;4.53;;;11.90;40.00;;;10.89;36.50;97780.59;5440865;26;20471;-77
2024/04/23 10:39:35;;;;;;;4.60;4.20;;;12.10;40.20;;;10.95;36.23;97770.78;5437357;26;20853;-75